Time;durP1;ratioP1;P1;durP2;ratioP2;P2;SDS_P1;SDS_P2;PMS_P1;PMS_P2;Temp;Humidity;BMP_temperature;BMP_pressure;BME280_temperature;BME280_humidity;BME280_pressure;Samples;Min_cycle;Max_cycle;Signal;HPM_P1;HPM_P2
2022/06/21 00:00:34;;;;;;;4.05;3.65;;;;;;;18.6;62.84961;95175.97;;;;
2022/06/21 00:01:35;;;;;;;4.05;3.65;;;;;;;18.6;62.84961;95175.97;;;;
2022/06/21 00:02:35;;;;;;;4.05;3.65;;;;;;;18.6;62.84961;95175.97;;;;
2022/06/21 00:03:36;;;;;;;4.05;3.65;;;;;;;18.6;62.84961;95175.97;;;;
2022/06/21 00:04:37;;;;;;;4.299999;3.75;;;;;;;18.55;63.14941;95165.36;;;;
2022/06/21 00:05:38;;;;;;;4.299999;3.75;;;;;;;18.55;63.14941;95165.36;;;;
2022/06/21 00:06:41;;;;;;;4.299999;3.75;;;;;;;18.55;63.14941;95165.36;;;;
2022/06/21 00:07:42;;;;;;;4.299999;3.75;;;;;;;18.55;63.14941;95165.36;;;;
2022/06/21 00:08:43;;;;;;;4.299999;3.75;;;;;;;18.55;63.14941;95165.36;;;;
2022/06/21 00:09:43;;;;;;;4.299999;3.75;;;;;;;18.55;63.14941;95165.36;;;;
2022/06/21 00:10:44;;;;;;;4.299999;3.75;;;;;;;18.55;63.14941;95165.36;;;;
2022/06/21 00:11:45;;;;;;;4.299999;3.75;;;;;;;18.55;63.14941;95165.36;;;;
2022/06/21 00:12:46;;;;;;;4.299999;3.75;;;;;;;18.55;63.14941;95165.36;;;;
2022/06/21 00:13:46;;;;;;;4.299999;3.75;;;;;;;18.55;63.14941;95165.36;;;;
2022/06/21 00:14:47;;;;;;;4.75;3.85;;;;;;;18.38;63.43262;95168.77;;;;
2022/06/21 00:15:48;;;;;;;4.75;3.85;;;;;;;18.38;63.43262;95168.77;;;;
2022/06/21 00:16:57;;;;;;;4.75;3.85;;;;;;;18.38;63.43262;95168.77;;;;
2022/06/21 00:17:57;;;;;;;4.75;3.85;;;;;;;18.38;63.43262;95168.77;;;;
2022/06/21 00:18:58;;;;;;;4.75;3.85;;;;;;;18.38;63.43262;95168.77;;;;
2022/06/21 00:19:59;;;;;;;4.75;3.85;;;;;;;18.38;63.43262;95168.77;;;;
2022/06/21 00:21:00;;;;;;;4.75;3.85;;;;;;;18.38;63.43262;95168.77;;;;
2022/06/21 00:22:00;;;;;;;4.75;3.85;;;;;;;18.38;63.43262;95168.77;;;;
2022/06/21 00:23:01;;;;;;;4.75;3.85;;;;;;;18.38;63.43262;95168.77;;;;
2022/06/21 00:24:01;;;;;;;4.75;3.85;;;;;;;18.38;63.43262;95168.77;;;;
2022/06/21 00:25:03;;;;;;;4.3;3.65;;;;;;;18.28;63.80273;95178.09;;;;
2022/06/21 00:26:05;;;;;;;4.3;3.65;;;;;;;18.28;63.80273;95178.09;;;;
2022/06/21 00:27:09;;;;;;;4.3;3.65;;;;;;;18.28;63.80273;95178.09;;;;
2022/06/21 00:28:12;;;;;;;4.3;3.65;;;;;;;18.28;63.80273;95178.09;;;;
2022/06/21 00:29:13;;;;;;;4.3;3.65;;;;;;;18.28;63.80273;95178.09;;;;
2022/06/21 00:30:14;;;;;;;4.3;3.65;;;;;;;18.28;63.80273;95178.09;;;;
2022/06/21 00:31:15;;;;;;;4.3;3.65;;;;;;;18.28;63.80273;95178.09;;;;
2022/06/21 00:32:18;;;;;;;4.3;3.65;;;;;;;18.28;63.80273;95178.09;;;;
2022/06/21 00:33:22;;;;;;;4.3;3.65;;;;;;;18.28;63.80273;95178.09;;;;
2022/06/21 00:34:24;;;;;;;4.3;3.65;;;;;;;18.28;63.80273;95178.09;;;;
2022/06/21 00:35:24;;;;;;;4.3;3.65;;;;;;;18.28;63.80273;95178.09;;;;
2022/06/21 00:36:26;;;;;;;4.699999;3.55;;;;;;;18.05;63.97949;95183.34;;;;
2022/06/21 00:37:32;;;;;;;4.699999;3.55;;;;;;;18.05;63.97949;95183.34;;;;
2022/06/21 00:38:32;;;;;;;4.699999;3.55;;;;;;;18.05;63.97949;95183.34;;;;
2022/06/21 00:39:34;;;;;;;4.699999;3.55;;;;;;;18.05;63.97949;95183.34;;;;
2022/06/21 00:40:35;;;;;;;4.699999;3.55;;;;;;;18.05;63.97949;95183.34;;;;
2022/06/21 00:41:35;;;;;;;4.699999;3.55;;;;;;;18.05;63.97949;95183.34;;;;
2022/06/21 00:42:41;;;;;;;4.699999;3.55;;;;;;;18.05;63.97949;95183.34;;;;
2022/06/21 00:43:44;;;;;;;4.699999;3.55;;;;;;;18.05;63.97949;95183.34;;;;
2022/06/21 00:44:48;;;;;;;4.699999;3.55;;;;;;;18.05;63.97949;95183.34;;;;
2022/06/21 00:45:59;;;;;;;4.699999;3.55;;;;;;;18.05;63.97949;95183.34;;;;
2022/06/21 00:47:00;;;;;;;3.8;3.5;;;;;;;17.79;64.38184;95193.11;;;;
2022/06/21 00:48:04;;;;;;;3.8;3.5;;;;;;;17.79;64.38184;95193.11;;;;
2022/06/21 00:49:13;;;;;;;3.8;3.5;;;;;;;17.79;64.38184;95193.11;;;;
2022/06/21 00:50:18;;;;;;;3.8;3.5;;;;;;;17.79;64.38184;95193.11;;;;
2022/06/21 00:51:27;;;;;;;3.8;3.5;;;;;;;17.79;64.38184;95193.11;;;;
2022/06/21 00:52:35;;;;;;;3.8;3.5;;;;;;;17.79;64.38184;95193.11;;;;
2022/06/21 00:53:42;;;;;;;3.8;3.5;;;;;;;17.79;64.38184;95193.11;;;;
2022/06/21 00:54:49;;;;;;;3.8;3.5;;;;;;;17.79;64.38184;95193.11;;;;
2022/06/21 00:55:53;;;;;;;3.8;3.5;;;;;;;17.79;64.38184;95193.11;;;;
2022/06/21 00:56:59;;;;;;;3.8;3.5;;;;;;;17.79;64.38184;95193.11;;;;
2022/06/21 00:58:04;;;;;;;4.099999;3.7;;;;;;;17.47;64.88184;95191.96;;;;
2022/06/21 00:59:05;;;;;;;4.099999;3.7;;;;;;;17.47;64.88184;95191.96;;;;
2022/06/21 01:00:16;;;;;;;4.099999;3.7;;;;;;;17.47;64.88184;95191.96;;;;
2022/06/21 01:01:29;;;;;;;4.099999;3.7;;;;;;;17.47;64.88184;95191.96;;;;
2022/06/21 01:02:33;;;;;;;4.099999;3.7;;;;;;;17.47;64.88184;95191.96;;;;
2022/06/21 01:03:35;;;;;;;4.099999;3.7;;;;;;;17.47;64.88184;95191.96;;;;
2022/06/21 01:04:39;;;;;;;4.099999;3.7;;;;;;;17.47;64.88184;95191.96;;;;
2022/06/21 01:05:42;;;;;;;4.099999;3.7;;;;;;;17.47;64.88184;95191.96;;;;
2022/06/21 01:06:45;;;;;;;4.099999;3.7;;;;;;;17.47;64.88184;95191.96;;;;
2022/06/21 01:07:50;;;;;;;3.7;3.4;;;;;;;17.15;65.4834;95199.95;;;;
2022/06/21 01:08:54;;;;;;;3.7;3.4;;;;;;;17.15;65.4834;95199.95;;;;
2022/06/21 01:09:59;;;;;;;3.7;3.4;;;;;;;17.15;65.4834;95199.95;;;;
2022/06/21 01:11:05;;;;;;;3.7;3.4;;;;;;;17.15;65.4834;95199.95;;;;
2022/06/21 01:12:11;;;;;;;3.7;3.4;;;;;;;17.15;65.4834;95199.95;;;;
2022/06/21 01:13:16;;;;;;;3.7;3.4;;;;;;;17.15;65.4834;95199.95;;;;
2022/06/21 01:14:27;;;;;;;3.7;3.4;;;;;;;17.15;65.4834;95199.95;;;;
2022/06/21 01:15:30;;;;;;;3.7;3.4;;;;;;;17.15;65.4834;95199.95;;;;
2022/06/21 01:16:35;;;;;;;3.7;3.4;;;;;;;17.15;65.4834;95199.95;;;;
2022/06/21 01:17:39;;;;;;;3.7;3.4;;;;;;;17.15;65.4834;95199.95;;;;
2022/06/21 01:18:40;;;;;;;3.7;3.4;;;;;;;17.15;65.4834;95199.95;;;;
2022/06/21 01:19:42;;;;;;;3.7;3.4;;;;;;;17.15;65.4834;95199.95;;;;
2022/06/21 01:20:48;;;;;;;3.7;3.4;;;;;;;17.15;65.4834;95199.95;;;;
2022/06/21 01:21:53;;;;;;;3.7;3.4;;;;;;;17.15;65.4834;95199.95;;;;
2022/06/21 01:23:00;;;;;;;3.7;3.4;;;;;;;17.15;65.4834;95199.95;;;;
2022/06/21 01:24:09;;;;;;;3.7;3.4;;;;;;;17.15;65.4834;95199.95;;;;
2022/06/21 01:25:16;;;;;;;3.7;3.4;;;;;;;17.15;65.4834;95199.95;;;;
2022/06/21 01:26:32;;;;;;;3.7;3.4;;;;;;;17.15;65.4834;95199.95;;;;
2022/06/21 01:27:39;;;;;;;3.7;3.4;;;;;;;17.15;65.4834;95199.95;;;;
2022/06/21 01:28:40;;;;;;;3.7;3.4;;;;;;;17.15;65.4834;95199.95;;;;
2022/06/21 01:29:41;;;;;;;2.9;2.6;;;;;;;16.77;66.23438;95201.47;;;;
2022/06/21 01:30:42;;;;;;;2.9;2.6;;;;;;;16.77;66.23438;95201.47;;;;
2022/06/21 01:31:45;;;;;;;2.9;2.6;;;;;;;16.77;66.23438;95201.47;;;;
2022/06/21 01:32:47;;;;;;;2.9;2.6;;;;;;;16.77;66.23438;95201.47;;;;
2022/06/21 01:33:48;;;;;;;2.9;2.6;;;;;;;16.77;66.23438;95201.47;;;;
2022/06/21 01:34:49;;;;;;;2.9;2.6;;;;;;;16.77;66.23438;95201.47;;;;
2022/06/21 01:35:49;;;;;;;2.9;2.6;;;;;;;16.77;66.23438;95201.47;;;;
2022/06/21 01:36:53;;;;;;;2.9;2.6;;;;;;;16.77;66.23438;95201.47;;;;
2022/06/21 01:38:00;;;;;;;2.9;2.6;;;;;;;16.77;66.23438;95201.47;;;;
2022/06/21 01:39:03;;;;;;;2.9;2.6;;;;;;;16.77;66.23438;95201.47;;;;
2022/06/21 01:40:06;;;;;;;3.2;2.5;;;;;;;16.83;66.22266;95193.38;;;;
2022/06/21 01:41:14;;;;;;;3.2;2.5;;;;;;;16.83;66.22266;95193.38;;;;
2022/06/21 01:42:20;;;;;;;3.2;2.5;;;;;;;16.83;66.22266;95193.38;;;;
2022/06/21 01:43:26;;;;;;;3.2;2.5;;;;;;;16.83;66.22266;95193.38;;;;
2022/06/21 01:44:29;;;;;;;3.2;2.5;;;;;;;16.83;66.22266;95193.38;;;;
2022/06/21 01:45:34;;;;;;;3.2;2.5;;;;;;;16.83;66.22266;95193.38;;;;
2022/06/21 01:46:38;;;;;;;3.2;2.5;;;;;;;16.83;66.22266;95193.38;;;;
2022/06/21 01:47:38;;;;;;;3.2;2.5;;;;;;;16.83;66.22266;95193.38;;;;
2022/06/21 01:48:43;;;;;;;3.2;2.5;;;;;;;16.83;66.22266;95193.38;;;;
2022/06/21 01:49:47;;;;;;;3.2;2.5;;;;;;;16.83;66.22266;95193.38;;;;
2022/06/21 01:50:56;;;;;;;3.8;2.3;;;;;;;16.96;66.11035;95192.04;;;;
2022/06/21 01:52:03;;;;;;;3.8;2.3;;;;;;;16.96;66.11035;95192.04;;;;
2022/06/21 01:53:12;;;;;;;3.8;2.3;;;;;;;16.96;66.11035;95192.04;;;;
2022/06/21 01:54:16;;;;;;;3.8;2.3;;;;;;;16.96;66.11035;95192.04;;;;
2022/06/21 01:55:22;;;;;;;3.8;2.3;;;;;;;16.96;66.11035;95192.04;;;;
2022/06/21 01:56:28;;;;;;;3.8;2.3;;;;;;;16.96;66.11035;95192.04;;;;
2022/06/21 01:57:33;;;;;;;3.8;2.3;;;;;;;16.96;66.11035;95192.04;;;;
2022/06/21 01:58:34;;;;;;;3.8;2.3;;;;;;;16.96;66.11035;95192.04;;;;
2022/06/21 01:59:39;;;;;;;3.8;2.3;;;;;;;16.96;66.11035;95192.04;;;;
2022/06/21 02:00:43;;;;;;;3.8;2.3;;;;;;;16.96;66.11035;95192.04;;;;
2022/06/21 02:01:49;;;;;;;2.7;2.1;;;;;;;16.93;65.95215;95181.46;;;;
2022/06/21 02:03:00;;;;;;;2.7;2.1;;;;;;;16.93;65.95215;95181.46;;;;
2022/06/21 02:04:06;;;;;;;2.7;2.1;;;;;;;16.93;65.95215;95181.46;;;;
2022/06/21 02:05:09;;;;;;;2.7;2.1;;;;;;;16.93;65.95215;95181.46;;;;
2022/06/21 02:06:14;;;;;;;2.7;2.1;;;;;;;16.93;65.95215;95181.46;;;;
2022/06/21 02:07:18;;;;;;;2.7;2.1;;;;;;;16.93;65.95215;95181.46;;;;
2022/06/21 02:08:23;;;;;;;2.7;2.1;;;;;;;16.93;65.95215;95181.46;;;;
2022/06/21 02:09:29;;;;;;;2.7;2.1;;;;;;;16.93;65.95215;95181.46;;;;
2022/06/21 02:10:37;;;;;;;2.7;2.1;;;;;;;16.93;65.95215;95181.46;;;;
2022/06/21 02:11:42;;;;;;;2.7;2.1;;;;;;;16.93;65.95215;95181.46;;;;
2022/06/21 02:12:47;;;;;;;2.3;1.9;;;;;;;16.88;65.75879;95179.66;;;;
2022/06/21 02:14:28;;;;;;;2.3;1.9;;;;;;;16.88;65.75879;95179.66;;;;
2022/06/21 02:15:37;;;;;;;2.3;1.9;;;;;;;16.88;65.75879;95179.66;;;;
2022/06/21 02:16:42;;;;;;;2.3;1.9;;;;;;;16.88;65.75879;95179.66;;;;
2022/06/21 02:17:47;;;;;;;2.3;1.9;;;;;;;16.88;65.75879;95179.66;;;;
2022/06/21 02:18:49;;;;;;;2.3;1.9;;;;;;;16.88;65.75879;95179.66;;;;
2022/06/21 02:19:53;;;;;;;2.3;1.9;;;;;;;16.88;65.75879;95179.66;;;;
2022/06/21 02:21:02;;;;;;;2.3;1.9;;;;;;;16.88;65.75879;95179.66;;;;
2022/06/21 02:22:10;;;;;;;2.3;1.9;;;;;;;16.88;65.75879;95179.66;;;;
2022/06/21 02:23:15;;;;;;;2.3;1.9;;;;;;;16.88;65.75879;95179.66;;;;
2022/06/21 02:24:18;;;;;;;2.3;1.9;;;;;;;16.88;65.75879;95179.66;;;;
2022/06/21 02:25:19;;;;;;;2.3;1.9;;;;;;;16.88;65.75879;95179.66;;;;
2022/06/21 02:26:22;;;;;;;2.3;1.9;;;;;;;16.88;65.75879;95179.66;;;;
2022/06/21 02:27:27;;;;;;;2.3;1.9;;;;;;;16.88;65.75879;95179.66;;;;
2022/06/21 02:28:32;;;;;;;2.3;1.9;;;;;;;16.88;65.75879;95179.66;;;;
2022/06/21 02:29:32;;;;;;;2.3;1.9;;;;;;;16.88;65.75879;95179.66;;;;
2022/06/21 02:30:36;;;;;;;2.3;1.9;;;;;;;16.88;65.75879;95179.66;;;;
2022/06/21 02:31:36;;;;;;;2.3;1.9;;;;;;;16.88;65.75879;95179.66;;;;
2022/06/21 02:32:37;;;;;;;2.3;1.9;;;;;;;16.88;65.75879;95179.66;;;;
2022/06/21 02:33:40;;;;;;;2.1;1.6;;;;;;;16.79;65.27441;95162.09;;;;
2022/06/21 02:34:44;;;;;;;2.1;1.6;;;;;;;16.79;65.27441;95162.09;;;;
2022/06/21 02:35:48;;;;;;;2.1;1.6;;;;;;;16.79;65.27441;95162.09;;;;
2022/06/21 02:36:52;;;;;;;2.1;1.6;;;;;;;16.79;65.27441;95162.09;;;;
2022/06/21 02:37:56;;;;;;;2.1;1.6;;;;;;;16.79;65.27441;95162.09;;;;
2022/06/21 02:39:00;;;;;;;2.1;1.6;;;;;;;16.79;65.27441;95162.09;;;;
2022/06/21 02:40:05;;;;;;;2.1;1.6;;;;;;;16.79;65.27441;95162.09;;;;
2022/06/21 02:41:09;;;;;;;2.1;1.6;;;;;;;16.79;65.27441;95162.09;;;;
2022/06/21 02:42:12;;;;;;;2.1;1.6;;;;;;;16.79;65.27441;95162.09;;;;
2022/06/21 02:43:19;;;;;;;2.1;1.6;;;;;;;16.79;65.27441;95162.09;;;;
2022/06/21 02:44:24;;;;;;;2.25;1.9;;;;;;;16.7;64.95605;95160;;;;
2022/06/21 02:45:28;;;;;;;2.25;1.9;;;;;;;16.7;64.95605;95160;;;;
2022/06/21 02:46:34;;;;;;;2.25;1.9;;;;;;;16.7;64.95605;95160;;;;
2022/06/21 02:47:38;;;;;;;2.25;1.9;;;;;;;16.7;64.95605;95160;;;;
2022/06/21 02:48:42;;;;;;;2.25;1.9;;;;;;;16.7;64.95605;95160;;;;
2022/06/21 02:49:47;;;;;;;2.25;1.9;;;;;;;16.7;64.95605;95160;;;;
2022/06/21 02:50:53;;;;;;;2.25;1.9;;;;;;;16.7;64.95605;95160;;;;
2022/06/21 02:51:58;;;;;;;2.25;1.9;;;;;;;16.7;64.95605;95160;;;;
2022/06/21 02:53:02;;;;;;;2.25;1.9;;;;;;;16.7;64.95605;95160;;;;
2022/06/21 02:54:09;;;;;;;2.25;1.9;;;;;;;16.7;64.95605;95160;;;;
2022/06/21 02:55:22;;;;;;;2.1;1.9;;;;;;;16.68;64.69043;95152.25;;;;
2022/06/21 02:56:31;;;;;;;2.1;1.9;;;;;;;16.68;64.69043;95152.25;;;;
2022/06/21 02:57:39;;;;;;;2.1;1.9;;;;;;;16.68;64.69043;95152.25;;;;
2022/06/21 02:58:45;;;;;;;2.1;1.9;;;;;;;16.68;64.69043;95152.25;;;;
2022/06/21 02:59:49;;;;;;;2.1;1.9;;;;;;;16.68;64.69043;95152.25;;;;
2022/06/21 03:00:52;;;;;;;2.1;1.9;;;;;;;16.68;64.69043;95152.25;;;;
2022/06/21 03:01:53;;;;;;;2.1;1.9;;;;;;;16.68;64.69043;95152.25;;;;
2022/06/21 03:02:57;;;;;;;2.1;1.9;;;;;;;16.68;64.69043;95152.25;;;;
2022/06/21 03:03:59;;;;;;;2.1;1.9;;;;;;;16.68;64.69043;95152.25;;;;
2022/06/21 03:05:00;;;;;;;2.1;1.9;;;;;;;16.68;64.69043;95152.25;;;;
2022/06/21 03:06:03;;;;;;;2.5;1.7;;;;;;;16.56;64.10352;95161.36;;;;
2022/06/21 03:07:11;;;;;;;2.5;1.7;;;;;;;16.56;64.10352;95161.36;;;;
2022/06/21 03:08:15;;;;;;;2.5;1.7;;;;;;;16.56;64.10352;95161.36;;;;
2022/06/21 03:09:17;;;;;;;2.5;1.7;;;;;;;16.56;64.10352;95161.36;;;;
2022/06/21 03:10:22;;;;;;;2.5;1.7;;;;;;;16.56;64.10352;95161.36;;;;
2022/06/21 03:11:27;;;;;;;2.5;1.7;;;;;;;16.56;64.10352;95161.36;;;;
2022/06/21 03:12:34;;;;;;;2.5;1.7;;;;;;;16.56;64.10352;95161.36;;;;
2022/06/21 03:13:35;;;;;;;2.5;1.7;;;;;;;16.56;64.10352;95161.36;;;;
2022/06/21 03:14:35;;;;;;;2.5;1.7;;;;;;;16.56;64.10352;95161.36;;;;
2022/06/21 03:15:37;;;;;;;2.5;1.7;;;;;;;16.56;64.10352;95161.36;;;;
2022/06/21 03:16:39;;;;;;;2;1.5;;;;;;;16.55;63.67578;95175.89;;;;
2022/06/21 03:17:41;;;;;;;2;1.5;;;;;;;16.55;63.67578;95175.89;;;;
2022/06/21 03:18:46;;;;;;;2;1.5;;;;;;;16.55;63.67578;95175.89;;;;
2022/06/21 03:19:51;;;;;;;2;1.5;;;;;;;16.55;63.67578;95175.89;;;;
2022/06/21 03:20:52;;;;;;;2;1.5;;;;;;;16.55;63.67578;95175.89;;;;
2022/06/21 03:21:54;;;;;;;2;1.5;;;;;;;16.55;63.67578;95175.89;;;;
2022/06/21 03:22:55;;;;;;;2;1.5;;;;;;;16.55;63.67578;95175.89;;;;
2022/06/21 03:23:56;;;;;;;2;1.5;;;;;;;16.55;63.67578;95175.89;;;;
2022/06/21 03:24:59;;;;;;;2;1.5;;;;;;;16.55;63.67578;95175.89;;;;
2022/06/21 03:26:03;;;;;;;2;1.5;;;;;;;16.55;63.67578;95175.89;;;;
2022/06/21 03:27:04;;;;;;;2.55;1.6;;;;;;;16.48;63.26074;95173.82;;;;
2022/06/21 03:28:17;;;;;;;2.55;1.6;;;;;;;16.48;63.26074;95173.82;;;;
2022/06/21 03:29:21;;;;;;;2.55;1.6;;;;;;;16.48;63.26074;95173.82;;;;
2022/06/21 03:30:22;;;;;;;2.55;1.6;;;;;;;16.48;63.26074;95173.82;;;;
2022/06/21 03:31:29;;;;;;;2.55;1.6;;;;;;;16.48;63.26074;95173.82;;;;
2022/06/21 03:32:33;;;;;;;2.55;1.6;;;;;;;16.48;63.26074;95173.82;;;;
2022/06/21 03:33:36;;;;;;;2.55;1.6;;;;;;;16.48;63.26074;95173.82;;;;
2022/06/21 03:34:42;;;;;;;2.55;1.6;;;;;;;16.48;63.26074;95173.82;;;;
2022/06/21 03:35:44;;;;;;;2.55;1.6;;;;;;;16.48;63.26074;95173.82;;;;
2022/06/21 03:36:44;;;;;;;2.55;1.6;;;;;;;16.48;63.26074;95173.82;;;;
2022/06/21 03:37:45;;;;;;;2.35;1.5;;;;;;;16.51;62.94824;95179.17;;;;
2022/06/21 03:38:46;;;;;;;2.35;1.5;;;;;;;16.51;62.94824;95179.17;;;;
2022/06/21 03:45:07;;;;;;;2.35;1.5;;;;;;;16.51;62.94824;95179.17;;;;
2022/06/21 03:46:15;;;;;;;2.35;1.5;;;;;;;16.51;62.94824;95179.17;;;;
2022/06/21 03:47:22;;;;;;;2.35;1.5;;;;;;;16.51;62.94824;95179.17;;;;
2022/06/21 03:48:28;;;;;;;1.95;1.5;;;;;;;16.46;62.58008;95174.59;;;;
2022/06/21 03:49:34;;;;;;;1.95;1.5;;;;;;;16.46;62.58008;95174.59;;;;
2022/06/21 03:50:43;;;;;;;1.95;1.5;;;;;;;16.46;62.58008;95174.59;;;;
2022/06/21 03:51:49;;;;;;;1.95;1.5;;;;;;;16.46;62.58008;95174.59;;;;
2022/06/21 03:52:52;;;;;;;1.95;1.5;;;;;;;16.46;62.58008;95174.59;;;;
2022/06/21 03:53:57;;;;;;;1.95;1.5;;;;;;;16.46;62.58008;95174.59;;;;
2022/06/21 03:55:03;;;;;;;1.95;1.5;;;;;;;16.46;62.58008;95174.59;;;;
2022/06/21 03:56:11;;;;;;;1.95;1.5;;;;;;;16.46;62.58008;95174.59;;;;
2022/06/21 03:57:20;;;;;;;1.95;1.5;;;;;;;16.46;62.58008;95174.59;;;;
2022/06/21 03:58:28;;;;;;;1.95;1.5;;;;;;;16.46;62.58008;95174.59;;;;
2022/06/21 03:59:42;;;;;;;1.5;1.4;;;;;;;16.55;62.3291;95178.55;;;;
2022/06/21 04:00:48;;;;;;;1.5;1.4;;;;;;;16.55;62.3291;95178.55;;;;
2022/06/21 04:01:55;;;;;;;1.5;1.4;;;;;;;16.55;62.3291;95178.55;;;;
2022/06/21 04:03:02;;;;;;;1.5;1.4;;;;;;;16.55;62.3291;95178.55;;;;
2022/06/21 04:04:09;;;;;;;1.5;1.4;;;;;;;16.55;62.3291;95178.55;;;;
2022/06/21 04:05:17;;;;;;;1.5;1.4;;;;;;;16.55;62.3291;95178.55;;;;
2022/06/21 04:06:25;;;;;;;1.5;1.4;;;;;;;16.55;62.3291;95178.55;;;;
2022/06/21 04:07:31;;;;;;;1.5;1.4;;;;;;;16.55;62.3291;95178.55;;;;
2022/06/21 04:08:36;;;;;;;1.5;1.4;;;;;;;16.55;62.3291;95178.55;;;;
2022/06/21 04:09:42;;;;;;;2.4;1.7;;;;;;;16.52;62.01855;95178.51;;;;
2022/06/21 04:10:50;;;;;;;2.4;1.7;;;;;;;16.52;62.01855;95178.51;;;;
2022/06/21 04:11:56;;;;;;;2.4;1.7;;;;;;;16.52;62.01855;95178.51;;;;
2022/06/21 04:13:04;;;;;;;2.4;1.7;;;;;;;16.52;62.01855;95178.51;;;;
2022/06/21 04:14:11;;;;;;;2.4;1.7;;;;;;;16.52;62.01855;95178.51;;;;
2022/06/21 04:15:18;;;;;;;2.4;1.7;;;;;;;16.52;62.01855;95178.51;;;;
2022/06/21 04:16:23;;;;;;;2.4;1.7;;;;;;;16.52;62.01855;95178.51;;;;
2022/06/21 04:17:29;;;;;;;2.4;1.7;;;;;;;16.52;62.01855;95178.51;;;;
2022/06/21 04:18:34;;;;;;;2.4;1.7;;;;;;;16.52;62.01855;95178.51;;;;
2022/06/21 04:19:47;;;;;;;2.4;1.7;;;;;;;16.52;62.01855;95178.51;;;;
2022/06/21 04:20:53;;;;;;;2.35;1.7;;;;;;;16.63;61.94727;95179.3;;;;
2022/06/21 04:22:02;;;;;;;2.35;1.7;;;;;;;16.63;61.94727;95179.3;;;;
2022/06/21 04:23:10;;;;;;;2.35;1.7;;;;;;;16.63;61.94727;95179.3;;;;
2022/06/21 04:24:20;;;;;;;2.35;1.7;;;;;;;16.63;61.94727;95179.3;;;;
2022/06/21 04:25:27;;;;;;;2.35;1.7;;;;;;;16.63;61.94727;95179.3;;;;
2022/06/21 04:26:35;;;;;;;2.35;1.7;;;;;;;16.63;61.94727;95179.3;;;;
2022/06/21 04:27:43;;;;;;;2.35;1.7;;;;;;;16.63;61.94727;95179.3;;;;
2022/06/21 04:28:51;;;;;;;2.35;1.7;;;;;;;16.63;61.94727;95179.3;;;;
2022/06/21 04:29:58;;;;;;;2.35;1.7;;;;;;;16.63;61.94727;95179.3;;;;
2022/06/21 04:31:04;;;;;;;1.85;1.5;;;;;;;16.67;61.52539;95161.33;;;;
2022/06/21 04:32:11;;;;;;;1.85;1.5;;;;;;;16.67;61.52539;95161.33;;;;
2022/06/21 04:33:16;;;;;;;1.85;1.5;;;;;;;16.67;61.52539;95161.33;;;;
2022/06/21 04:34:20;;;;;;;1.85;1.5;;;;;;;16.67;61.52539;95161.33;;;;
2022/06/21 04:35:26;;;;;;;1.85;1.5;;;;;;;16.67;61.52539;95161.33;;;;
2022/06/21 04:36:34;;;;;;;1.85;1.5;;;;;;;16.67;61.52539;95161.33;;;;
2022/06/21 04:37:38;;;;;;;1.85;1.5;;;;;;;16.67;61.52539;95161.33;;;;
2022/06/21 04:38:45;;;;;;;1.85;1.5;;;;;;;16.67;61.52539;95161.33;;;;
2022/06/21 04:39:54;;;;;;;1.85;1.5;;;;;;;16.67;61.52539;95161.33;;;;
2022/06/21 04:41:02;;;;;;;1.85;1.5;;;;;;;16.67;61.52539;95161.33;;;;
2022/06/21 04:42:07;;;;;;;1.75;1.6;;;;;;;16.75;61.37109;95166.2;;;;
2022/06/21 04:43:14;;;;;;;1.75;1.6;;;;;;;16.75;61.37109;95166.2;;;;
2022/06/21 04:44:22;;;;;;;1.75;1.6;;;;;;;16.75;61.37109;95166.2;;;;
2022/06/21 04:45:30;;;;;;;1.75;1.6;;;;;;;16.75;61.37109;95166.2;;;;
2022/06/21 04:46:39;;;;;;;1.75;1.6;;;;;;;16.75;61.37109;95166.2;;;;
2022/06/21 04:47:46;;;;;;;1.75;1.6;;;;;;;16.75;61.37109;95166.2;;;;
2022/06/21 04:48:52;;;;;;;1.75;1.6;;;;;;;16.75;61.37109;95166.2;;;;
2022/06/21 04:50:01;;;;;;;1.75;1.6;;;;;;;16.75;61.37109;95166.2;;;;
2022/06/21 04:51:15;;;;;;;1.75;1.6;;;;;;;16.75;61.37109;95166.2;;;;
2022/06/21 04:52:20;;;;;;;2.8;1.65;;;;;;;16.75;61.15234;95170.73;;;;
2022/06/21 04:53:28;;;;;;;2.8;1.65;;;;;;;16.75;61.15234;95170.73;;;;
2022/06/21 04:54:37;;;;;;;2.8;1.65;;;;;;;16.75;61.15234;95170.73;;;;
2022/06/21 04:55:39;;;;;;;2.8;1.65;;;;;;;16.75;61.15234;95170.73;;;;
2022/06/21 04:56:48;;;;;;;2.8;1.65;;;;;;;16.75;61.15234;95170.73;;;;
2022/06/21 04:57:59;;;;;;;2.8;1.65;;;;;;;16.75;61.15234;95170.73;;;;
2022/06/21 04:59:00;;;;;;;2.8;1.65;;;;;;;16.75;61.15234;95170.73;;;;
2022/06/21 05:00:04;;;;;;;2.8;1.65;;;;;;;16.75;61.15234;95170.73;;;;
2022/06/21 05:01:29;;;;;;;2.8;1.65;;;;;;;16.75;61.15234;95170.73;;;;
2022/06/21 05:02:30;;;;;;;2.8;1.65;;;;;;;16.75;61.15234;95170.73;;;;
2022/06/21 05:03:33;;;;;;;2.05;1.6;;;;;;;16.82;60.99707;95165.59;;;;
2022/06/21 05:04:41;;;;;;;2.05;1.6;;;;;;;16.82;60.99707;95165.59;;;;
2022/06/21 05:05:42;;;;;;;2.05;1.6;;;;;;;16.82;60.99707;95165.59;;;;
2022/06/21 05:06:43;;;;;;;2.05;1.6;;;;;;;16.82;60.99707;95165.59;;;;
2022/06/21 05:07:45;;;;;;;2.05;1.6;;;;;;;16.82;60.99707;95165.59;;;;
2022/06/21 05:08:49;;;;;;;2.05;1.6;;;;;;;16.82;60.99707;95165.59;;;;
2022/06/21 05:09:50;;;;;;;2.05;1.6;;;;;;;16.82;60.99707;95165.59;;;;
2022/06/21 05:10:54;;;;;;;2.05;1.6;;;;;;;16.82;60.99707;95165.59;;;;
2022/06/21 05:11:59;;;;;;;2.05;1.6;;;;;;;16.82;60.99707;95165.59;;;;
2022/06/21 05:13:03;;;;;;;2.05;1.6;;;;;;;16.82;60.99707;95165.59;;;;
2022/06/21 05:14:12;;;;;;;2.35;1.7;;;;;;;16.91;60.9668;95171.96;;;;
2022/06/21 05:15:19;;;;;;;2.35;1.7;;;;;;;16.91;60.9668;95171.96;;;;
2022/06/21 05:16:24;;;;;;;2.35;1.7;;;;;;;16.91;60.9668;95171.96;;;;
2022/06/21 05:17:28;;;;;;;2.35;1.7;;;;;;;16.91;60.9668;95171.96;;;;
2022/06/21 05:18:31;;;;;;;2.35;1.7;;;;;;;16.91;60.9668;95171.96;;;;
2022/06/21 05:19:38;;;;;;;2.35;1.7;;;;;;;16.91;60.9668;95171.96;;;;
2022/06/21 05:20:43;;;;;;;2.35;1.7;;;;;;;16.91;60.9668;95171.96;;;;
2022/06/21 05:21:50;;;;;;;2.35;1.7;;;;;;;16.91;60.9668;95171.96;;;;
2022/06/21 05:22:56;;;;;;;2.35;1.7;;;;;;;16.91;60.9668;95171.96;;;;
2022/06/21 05:24:01;;;;;;;2.3;1.7;;;;;;;17.12;60.80762;95154.24;;;;
2022/06/21 05:25:02;;;;;;;2.3;1.7;;;;;;;17.12;60.80762;95154.24;;;;
2022/06/21 05:26:21;;;;;;;2.3;1.7;;;;;;;17.12;60.80762;95154.24;;;;
2022/06/21 05:27:29;;;;;;;2.3;1.7;;;;;;;17.12;60.80762;95154.24;;;;
2022/06/21 05:28:35;;;;;;;2.3;1.7;;;;;;;17.12;60.80762;95154.24;;;;
2022/06/21 05:29:42;;;;;;;2.3;1.7;;;;;;;17.12;60.80762;95154.24;;;;
2022/06/21 05:30:47;;;;;;;2.3;1.7;;;;;;;17.12;60.80762;95154.24;;;;
2022/06/21 05:31:52;;;;;;;2.3;1.7;;;;;;;17.12;60.80762;95154.24;;;;
2022/06/21 05:32:58;;;;;;;2.3;1.7;;;;;;;17.12;60.80762;95154.24;;;;
2022/06/21 05:34:00;;;;;;;2.3;1.7;;;;;;;17.12;60.80762;95154.24;;;;
2022/06/21 05:35:05;;;;;;;1.85;1.6;;;;;;;17.34;60.65332;95163.75;;;;
2022/06/21 05:36:11;;;;;;;1.85;1.6;;;;;;;17.34;60.65332;95163.75;;;;
2022/06/21 05:37:17;;;;;;;1.85;1.6;;;;;;;17.34;60.65332;95163.75;;;;
2022/06/21 05:38:30;;;;;;;1.85;1.6;;;;;;;17.34;60.65332;95163.75;;;;
2022/06/21 05:39:33;;;;;;;1.85;1.6;;;;;;;17.34;60.65332;95163.75;;;;
2022/06/21 05:40:39;;;;;;;1.85;1.6;;;;;;;17.34;60.65332;95163.75;;;;
2022/06/21 05:41:47;;;;;;;1.85;1.6;;;;;;;17.34;60.65332;95163.75;;;;
2022/06/21 05:42:51;;;;;;;1.85;1.6;;;;;;;17.34;60.65332;95163.75;;;;
2022/06/21 05:43:52;;;;;;;1.85;1.6;;;;;;;17.34;60.65332;95163.75;;;;
2022/06/21 05:44:53;;;;;;;1.85;1.6;;;;;;;17.34;60.65332;95163.75;;;;
2022/06/21 05:45:57;;;;;;;1.9;1.7;;;;;;;17.59;60.56738;95167.58;;;;
2022/06/21 05:47:01;;;;;;;1.9;1.7;;;;;;;17.59;60.56738;95167.58;;;;
2022/06/21 05:48:06;;;;;;;1.9;1.7;;;;;;;17.59;60.56738;95167.58;;;;
2022/06/21 05:49:12;;;;;;;1.9;1.7;;;;;;;17.59;60.56738;95167.58;;;;
2022/06/21 05:50:22;;;;;;;1.9;1.7;;;;;;;17.59;60.56738;95167.58;;;;
2022/06/21 05:51:26;;;;;;;1.9;1.7;;;;;;;17.59;60.56738;95167.58;;;;
2022/06/21 05:52:31;;;;;;;1.9;1.7;;;;;;;17.59;60.56738;95167.58;;;;
2022/06/21 05:53:35;;;;;;;1.9;1.7;;;;;;;17.59;60.56738;95167.58;;;;
2022/06/21 05:54:39;;;;;;;1.9;1.7;;;;;;;17.59;60.56738;95167.58;;;;
2022/06/21 05:55:45;;;;;;;1.9;1.7;;;;;;;17.59;60.56738;95167.58;;;;
2022/06/21 05:56:47;;;;;;;2.35;1.8;;;;;;;17.78;60.48145;95167.41;;;;
2022/06/21 05:57:50;;;;;;;2.35;1.8;;;;;;;17.78;60.48145;95167.41;;;;
2022/06/21 05:58:55;;;;;;;2.35;1.8;;;;;;;17.78;60.48145;95167.41;;;;
2022/06/21 05:59:59;;;;;;;2.35;1.8;;;;;;;17.78;60.48145;95167.41;;;;
2022/06/21 06:01:02;;;;;;;2.35;1.8;;;;;;;17.78;60.48145;95167.41;;;;
2022/06/21 06:02:08;;;;;;;2.35;1.8;;;;;;;17.78;60.48145;95167.41;;;;
2022/06/21 06:03:15;;;;;;;2.35;1.8;;;;;;;17.78;60.48145;95167.41;;;;
2022/06/21 06:04:20;;;;;;;2.35;1.8;;;;;;;17.78;60.48145;95167.41;;;;
2022/06/21 06:05:28;;;;;;;2.35;1.8;;;;;;;17.78;60.48145;95167.41;;;;
2022/06/21 06:06:34;;;;;;;2.35;1.8;;;;;;;17.78;60.48145;95167.41;;;;
2022/06/21 06:07:35;;;;;;;3;2.1;;;;;;;18.06;60.31152;95168.11;;;;
2022/06/21 06:08:41;;;;;;;3;2.1;;;;;;;18.06;60.31152;95168.11;;;;
2022/06/21 06:09:46;;;;;;;3;2.1;;;;;;;18.06;60.31152;95168.11;;;;
2022/06/21 06:10:50;;;;;;;3;2.1;;;;;;;18.06;60.31152;95168.11;;;;
2022/06/21 06:11:59;;;;;;;3;2.1;;;;;;;18.06;60.31152;95168.11;;;;
2022/06/21 06:13:05;;;;;;;3;2.1;;;;;;;18.06;60.31152;95168.11;;;;
2022/06/21 06:14:10;;;;;;;3;2.1;;;;;;;18.06;60.31152;95168.11;;;;
2022/06/21 06:15:10;;;;;;;3;2.1;;;;;;;18.06;60.31152;95168.11;;;;
2022/06/21 06:16:17;;;;;;;3;2.1;;;;;;;18.06;60.31152;95168.11;;;;
2022/06/21 06:17:35;;;;;;;4.45;2.4;;;;;;;18.22;59.79395;95153.17;;;;
2022/06/21 06:18:43;;;;;;;4.45;2.4;;;;;;;18.22;59.79395;95153.17;;;;
2022/06/21 06:19:49;;;;;;;4.45;2.4;;;;;;;18.22;59.79395;95153.17;;;;
2022/06/21 06:20:54;;;;;;;4.45;2.4;;;;;;;18.22;59.79395;95153.17;;;;